Accueil
METAR-TAF:

METAR-TAF

Aéroports :

Aéroport Sandro-Pertini de Turin Caselle

Turin, Italie

latitude: 45-13N, longitude: 007-39E, altitude: 301 m

Observation

Le bulletin a été fait il y a 14 minutes, à 22:50 UTC
Vent 2 kt de direction variable
Température 21°C
Humidité 73%
Pression 1016 hPa
Visibilité 10 km ou plus
pas de nuages en-dessous de 1500 mètres et pas de cumulonimbus.

METAR: LIMF 172250Z VRB02KT CAVOK 21/16 Q1016

Heure: 01:04 (23:04 UTC)

Prévision

Le bulletin a été fait il y a 6 heures et 4 minutes, à 17:00 UTC
Prévision valable du 17 à 18 UTC au 18 à 18 UTC
Vent 5 kt de direction variable
Visibilité 10 km ou plus
Nuages épars à une hauteur de 5000 ft
Probabilité 40% :
Temporairement
du 17 à 18 UTC au 17 à 20 UTC
orage, pluie

TAF: LIMF 171700Z 1718/1818 VRB05KT 9999 SCT050 PROB40 TEMPO 1718/1720 TSRA

Observations et prévisions météorologiques de plus de 4000 aéroports (messages METAR et TAF).

Les stations disponibles sont représentées par des disques jaunes et rouges sur la carte.

Passer la souris dessus pour voir le nom de la station.

Cliquer dessus pour voir les observations et prévisions météorologiques.

Pour changer de carte: cliquez sur les boutons verts avec une croix noire pour zoomer, sur le bouton vert avec un tiret pour effectuer un zoom arrière, ou sur les flèches vertes pour les cartes adjacentes.


METAR-TAF: